createdAt,value
2022-08-11T00:04:27.146Z,48.10
2022-08-11T00:09:39.264Z,48.67
2022-08-11T00:14:46.259Z,48.53
2022-08-11T00:20:12.825Z,48.20
2022-08-11T00:25:03.225Z,48.33
2022-08-11T00:30:13.944Z,48.03
2022-08-11T00:35:53.804Z,48.40
2022-08-11T00:40:31.321Z,48.53
2022-08-11T00:45:44.923Z,48.53
2022-08-11T00:51:04.729Z,48.67
2022-08-11T00:56:27.334Z,47.50
2022-08-11T01:01:41.669Z,48.90
2022-08-11T01:06:52.535Z,48.23
2022-08-11T01:12:18.938Z,48.13
2022-08-11T01:17:51.435Z,47.90
2022-08-11T01:23:22.514Z,48.07
2022-08-11T01:28:40.324Z,48.00
2022-08-11T01:34:21.736Z,48.17
2022-08-11T01:39:40.239Z,47.80
2022-08-11T01:44:54.701Z,47.30
2022-08-11T01:50:11.655Z,47.77
2022-08-11T01:55:26.802Z,46.94
2022-08-11T02:00:33.973Z,47.23
2022-08-11T02:06:01.765Z,47.90
2022-08-11T02:11:35.340Z,47.40
2022-08-11T02:17:06.509Z,47.57
2022-08-11T02:22:48.922Z,47.30
2022-08-11T02:28:14.600Z,47.30
2022-08-11T02:33:25.403Z,48.23
2022-08-11T02:38:51.844Z,47.70
2022-08-11T02:44:25.935Z,47.23
2022-08-11T02:50:06.140Z,47.87
2022-08-11T02:55:56.613Z,47.72
2022-08-11T03:00:57.164Z,47.28
2022-08-11T03:06:10.457Z,48.10
2022-08-11T03:11:51.621Z,47.67
2022-08-11T03:17:13.699Z,47.73
2022-08-11T03:22:43.128Z,47.17
2022-08-11T03:28:02.708Z,47.37
2022-08-11T03:33:48.020Z,47.40
2022-08-11T03:39:08.106Z,46.87
2022-08-11T03:44:30.909Z,46.57
2022-08-11T03:49:54.782Z,46.75
2022-08-11T03:55:11.736Z,46.93
2022-08-11T04:00:22.711Z,46.48
2022-08-11T04:05:45.971Z,46.30
2022-08-11T04:11:13.110Z,46.87
2022-08-11T04:16:26.761Z,47.45
2022-08-11T04:21:54.585Z,46.93
2022-08-11T04:27:37.662Z,47.17
2022-08-11T04:33:05.852Z,46.92
2022-08-11T04:38:22.202Z,50.44
2022-08-11T04:44:05.718Z,48.57
2022-08-11T04:49:24.948Z,47.93
2022-08-11T04:55:11.601Z,48.90
2022-08-11T05:00:37.648Z,48.52
2022-08-11T05:06:16.179Z,49.33
2022-08-11T05:11:32.852Z,48.97
2022-08-11T05:17:05.676Z,49.77
2022-08-11T05:22:32.136Z,49.63
2022-08-11T05:28:09.991Z,50.47
2022-08-11T05:33:42.351Z,50.57
2022-08-11T05:39:20.386Z,51.77
2022-08-11T05:44:46.719Z,50.57
2022-08-11T05:50:13.696Z,50.33
2022-08-11T05:55:36.322Z,50.10
2022-08-11T06:00:45.809Z,50.20
2022-08-11T06:05:51.604Z,50.13
2022-08-11T06:11:05.250Z,50.23
2022-08-11T06:16:11.553Z,51.20
2022-08-11T06:26:22.498Z,50.35
2022-08-11T06:31:28.542Z,50.45
2022-08-11T06:36:38.594Z,51.03
2022-08-11T06:42:06.062Z,50.17
2022-08-11T06:47:14.467Z,51.13
2022-08-11T06:52:35.026Z,50.73
2022-08-11T06:57:45.783Z,49.95
2022-08-11T07:03:04.482Z,50.20
2022-08-11T07:08:56.478Z,52.07
2022-08-11T07:14:22.979Z,51.85
2022-08-11T07:19:48.956Z,51.50
2022-08-11T07:25:24.294Z,51.65
2022-08-11T07:30:31.312Z,50.73
2022-08-11T07:35:46.247Z,50.87
2022-08-11T07:40:52.331Z,51.17
2022-08-11T07:46:15.971Z,51.10
2022-08-11T07:51:41.640Z,50.57
2022-08-11T07:56:55.577Z,50.97
2022-08-11T08:02:25.217Z,51.40
2022-08-11T08:07:51.486Z,50.97
2022-08-11T08:13:16.890Z,50.53
2022-08-11T08:18:26.596Z,50.97
2022-08-11T08:23:35.495Z,50.87
2022-08-11T08:28:41.175Z,50.48
2022-08-11T08:33:47.150Z,50.30
2022-08-11T08:38:55.156Z,50.30
2022-08-11T08:44:34.778Z,50.78
2022-08-11T08:49:13.742Z,51.00
2022-08-11T08:54:22.904Z,50.83
2022-08-11T08:59:48.016Z,50.40
2022-08-11T09:04:36.339Z,50.97
2022-08-11T09:15:05.675Z,51.25
2022-08-11T09:20:25.665Z,51.07
2022-08-11T09:25:51.333Z,50.80
2022-08-11T09:30:57.036Z,51.47
2022-08-11T09:36:04.667Z,51.70
2022-08-11T09:41:14.342Z,51.02
2022-08-11T09:46:26.654Z,51.53
2022-08-11T09:51:33.484Z,50.87
2022-08-11T09:56:57.936Z,50.80
2022-08-11T10:02:05.513Z,50.00
2022-08-11T10:07:13.893Z,50.37
2022-08-11T10:12:37.324Z,50.60
2022-08-11T10:18:04.338Z,50.50
2022-08-11T10:23:29.709Z,50.10
2022-08-11T10:28:55.933Z,50.57
2022-08-11T10:34:04.400Z,50.33
2022-08-11T10:39:12.239Z,50.77
2022-08-11T10:44:19.806Z,50.75
2022-08-11T10:49:28.005Z,50.52
2022-08-11T10:54:53.702Z,50.52
2022-08-11T10:59:59.871Z,50.40
2022-08-11T11:05:26.743Z,49.90
2022-08-11T11:10:34.009Z,50.60
2022-08-11T11:16:00.138Z,50.43
2022-08-11T11:21:11.115Z,51.10
2022-08-11T11:26:39.992Z,50.73
2022-08-11T11:32:13.795Z,50.20
2022-08-11T11:37:19.576Z,51.03
2022-08-11T11:42:26.198Z,50.88
2022-08-11T11:47:34.423Z,51.37
2022-08-11T11:52:41.653Z,50.63
2022-08-11T11:58:02.822Z,51.23
2022-08-11T12:03:11.732Z,51.15
2022-08-11T12:08:23.396Z,50.92
2022-08-11T12:13:42.720Z,50.77
2022-08-11T12:18:51.891Z,51.00
2022-08-11T12:24:18.557Z,51.27
2022-08-11T12:29:27.599Z,51.33
2022-08-11T12:34:33.214Z,51.13
2022-08-11T12:40:16.095Z,51.40
2022-08-11T12:45:31.114Z,51.57
2022-08-11T12:50:55.066Z,50.95
2022-08-11T12:56:21.247Z,50.97
2022-08-11T13:01:44.423Z,51.05
2022-08-11T13:06:51.392Z,50.93
2022-08-11T13:12:15.626Z,50.85
2022-08-11T13:17:40.246Z,51.37
2022-08-11T13:22:36.705Z,51.20
2022-08-11T13:27:39.719Z,51.40
2022-08-11T13:32:46.766Z,51.13
2022-08-11T13:38:17.462Z,51.30
2022-08-11T13:43:00.620Z,51.20
2022-08-11T13:48:09.310Z,51.35
2022-08-11T13:53:17.688Z,51.50
2022-08-11T13:58:40.167Z,51.47
2022-08-11T14:04:29.142Z,51.35
2022-08-11T14:08:47.203Z,51.70
2022-08-11T14:13:52.427Z,51.80
2022-08-11T14:19:01.053Z,51.40
2022-08-11T14:24:07.374Z,51.30
2022-08-11T14:29:21.083Z,51.50
2022-08-11T14:34:34.818Z,51.00
2022-08-11T14:39:49.489Z,51.25
2022-08-11T14:45:15.698Z,51.03
2022-08-11T14:50:24.054Z,51.03
2022-08-11T14:55:52.339Z,50.70
2022-08-11T15:01:02.085Z,50.87
2022-08-11T15:06:08.362Z,50.90
2022-08-11T15:11:34.354Z,50.60
2022-08-11T15:17:01.197Z,50.77
2022-08-11T15:22:27.775Z,50.50
2022-08-11T15:27:50.717Z,51.23
2022-08-11T15:33:15.278Z,50.88
2022-08-11T15:38:23.319Z,50.47
2022-08-11T15:43:52.132Z,50.55
2022-08-11T15:49:21.853Z,50.50
2022-08-11T15:54:29.018Z,50.43
2022-08-11T15:59:55.111Z,50.50
2022-08-11T16:05:04.540Z,50.38
2022-08-11T16:10:18.896Z,50.55
2022-08-11T16:15:39.629Z,50.27
2022-08-11T16:20:46.011Z,50.45
2022-08-11T16:27:01.926Z,50.27
2022-08-11T16:31:00.001Z,50.30
2022-08-11T16:36:25.233Z,50.00
2022-08-11T16:41:50.867Z,50.07
2022-08-11T16:47:00.257Z,49.80
2022-08-11T16:52:11.915Z,50.17
2022-08-11T16:57:39.164Z,50.38
2022-08-11T17:03:12.985Z,50.57
2022-08-11T17:08:39.622Z,50.10
2022-08-11T17:13:57.299Z,49.83
2022-08-11T17:19:05.996Z,49.97
2022-08-11T17:24:16.636Z,49.83
2022-08-11T17:29:24.607Z,49.87
2022-08-11T17:34:47.854Z,49.83
2022-08-11T17:39:54.265Z,49.63
2022-08-11T17:45:20.208Z,50.47
2022-08-11T17:50:26.511Z,49.70
2022-08-11T17:55:53.642Z,50.35
2022-08-11T18:01:08.907Z,50.67
2022-08-11T18:06:12.616Z,49.73
2022-08-11T18:12:09.797Z,49.83
2022-08-11T18:17:06.322Z,50.03
2022-08-11T18:22:36.098Z,50.00
2022-08-11T18:28:02.595Z,49.77
2022-08-11T18:38:52.148Z,48.85
2022-08-11T18:44:19.225Z,50.53
2022-08-11T18:50:03.897Z,50.73
2022-08-11T18:55:13.937Z,49.90
2022-08-11T19:00:37.279Z,50.07
2022-08-11T19:06:35.998Z,50.23
2022-08-11T19:11:29.528Z,50.00
2022-08-11T19:16:54.576Z,49.73
2022-08-11T19:22:19.111Z,50.37
2022-08-11T19:27:46.408Z,50.73
2022-08-11T19:33:10.532Z,53.23
2022-08-11T19:38:35.941Z,50.00
2022-08-11T19:44:03.778Z,50.83
2022-08-11T19:54:53.556Z,49.33
2022-08-11T20:00:18.222Z,49.77
2022-08-11T20:05:59.813Z,49.54
2022-08-11T20:11:08.035Z,50.07
2022-08-11T20:16:33.343Z,52.90
2022-08-11T20:21:58.639Z,59.17
2022-08-11T20:27:24.911Z,51.20
2022-08-11T20:38:14.671Z,49.83
2022-08-11T20:44:08.117Z,50.15
2022-08-11T20:49:05.122Z,48.57
2022-08-11T20:54:43.126Z,49.00
2022-08-11T20:59:57.165Z,49.37
2022-08-11T21:06:09.071Z,49.30
2022-08-11T21:10:52.025Z,48.87
2022-08-11T21:16:26.082Z,49.53
2022-08-11T21:21:47.967Z,48.07
2022-08-11T21:27:16.305Z,48.57
2022-08-11T21:32:40.139Z,49.37
2022-08-11T21:38:03.802Z,49.40
2022-08-11T21:43:30.828Z,48.93
2022-08-11T21:48:55.853Z,49.45
2022-08-11T21:54:19.738Z,49.07
2022-08-11T21:59:46.071Z,49.43
2022-08-11T22:05:09.616Z,48.97
2022-08-11T22:10:42.340Z,48.17
2022-08-11T22:15:59.689Z,48.23
2022-08-11T22:22:01.683Z,48.23
2022-08-11T22:26:50.618Z,48.87
2022-08-11T22:32:14.065Z,48.03
2022-08-11T22:37:38.879Z,48.20
2022-08-11T22:43:03.572Z,47.70
2022-08-11T22:48:29.846Z,47.80
2022-08-11T22:53:57.699Z,48.30
2022-08-11T22:59:18.954Z,47.77
2022-08-11T23:04:43.659Z,49.23
2022-08-11T23:10:07.186Z,48.00
2022-08-11T23:15:30.611Z,47.80
2022-08-11T23:20:56.217Z,48.03
2022-08-11T23:26:21.817Z,47.43
2022-08-11T23:31:51.109Z,47.40
2022-08-11T23:37:14.776Z,48.02
2022-08-11T23:42:38.282Z,47.40
2022-08-11T23:48:02.862Z,47.43
2022-08-11T23:53:26.955Z,47.73
2022-08-11T23:58:52.107Z,46.90
